Time;durP1;ratioP1;P1;durP2;ratioP2;P2;SDS_P1;SDS_P2;PMS_P1;PMS_P2;Temp;Humidity;BMP_temperature;BMP_pressure;BME280_temperature;BME280_humidity;BME280_pressure;Samples;Min_cycle;Max_cycle;Signal;HPM_P1;HPM_P2
2022/09/30 00:02:11;;;;;;;7.53;6.10;;;;;;;21.79;50.32;99135.91;5070954;28;20089;-79
2022/09/30 00:04:36;;;;;;;6.97;6.28;;;;;;;21.80;50.07;99120.59;5071480;28;20032;-79
2022/09/30 00:07:02;;;;;;;6.63;5.50;;;;;;;21.60;50.06;99085.56;5071341;28;20166;-79
2022/09/30 00:09:27;;;;;;;6.28;5.68;;;;;;;21.28;50.12;99035.41;5071208;28;20025;-79
2022/09/30 00:11:53;;;;;;;6.20;5.60;;;;;;;21.24;50.20;99037.00;5071210;28;20028;-79
2022/09/30 00:14:21;;;;;;;9.20;5.93;;;;;;;21.82;50.07;99134.59;5069597;28;20047;-79
2022/09/30 00:16:47;;;;;;;9.35;6.10;;;;;;;21.44;50.06;99085.47;5068966;28;20025;-79
2022/09/30 00:19:13;;;;;;;6.55;5.88;;;;;;;21.65;50.14;99115.16;5070980;28;20024;-79
2022/09/30 00:21:38;;;;;;;6.78;6.18;;;;;;;21.71;50.18;99132.91;5070866;28;20024;-79
2022/09/30 00:24:05;;;;;;;6.68;6.07;;;;;;;21.67;50.12;99126.44;5071207;28;20111;-79
2022/09/30 00:26:31;;;;;;;5.95;5.35;;;;;;;21.04;50.22;99055.63;5072032;28;20017;-79
2022/09/30 00:28:58;;;;;;;6.10;5.60;;;;;;;21.41;50.31;99112.84;5075088;28;20493;-79
2022/09/30 00:31:26;;;;;;;6.05;5.45;;;;;;;21.46;50.53;99128.19;5075042;28;20020;-79
2022/09/30 00:34:07;;;;;;;6.32;5.72;;;;;;;21.43;50.52;99145.63;5075124;28;20029;-79
2022/09/30 00:36:38;;;;;;;5.88;5.38;;;;;;;21.41;50.51;99134.31;5075119;28;20055;-79
2022/09/30 00:39:05;;;;;;;6.90;5.88;;;;;;;21.42;50.56;99132.44;5075075;28;20456;-79
2022/09/30 00:41:31;;;;;;;6.72;5.70;;;;;;;21.27;50.47;99111.66;5074831;28;20028;-79
2022/09/30 00:43:56;;;;;;;7.00;6.10;;;;;;;21.45;50.48;99151.53;5073578;28;20031;-79
2022/09/30 00:46:30;;;;;;;5.97;5.50;;;;;;;21.39;50.87;99146.38;5073644;28;20024;-79
2022/09/30 00:48:57;;;;;;;6.82;6.00;;;;;;;20.92;50.93;99085.34;5073411;28;20020;-79
2022/09/30 00:51:45;;;;;;;6.43;5.82;;;;;;;21.08;50.99;99111.25;5073266;28;20413;-79
2022/09/30 00:54:22;;;;;;;6.43;5.82;;;;;;;20.95;50.90;99098.25;5073437;28;20039;-79
2022/09/30 00:56:54;;;;;;;6.60;5.95;;;;;;;21.05;50.90;99108.25;5073331;28;20028;-79
2022/09/30 00:59:27;;;;;;;6.65;6.00;;;;;;;20.56;51.01;99044.78;5074996;28;20036;-79
2022/09/30 01:01:53;;;;;;;7.07;5.70;;;;;;;21.21;51.21;99151.06;5074501;28;20044;-79
2022/09/30 01:04:22;;;;;;;7.22;6.40;;;;;;;21.16;51.18;99144.84;5073270;28;20020;-79
2022/09/30 01:06:49;;;;;;;6.75;6.22;;;;;;;21.17;51.14;99135.72;5074578;28;20123;-80
2022/09/30 01:09:14;;;;;;;8.25;6.18;;;;;;;20.34;51.25;99011.03;5073286;28;20020;-79
2022/09/30 01:11:40;;;;;;;7.10;5.82;;;;;;;21.17;51.37;99149.97;5074112;28;20021;-79
2022/09/30 01:14:18;;;;;;;6.10;5.60;;;;;;;20.72;51.50;99093.19;5094004;28;20036;-79
2022/09/30 01:16:59;;;;;;;6.65;5.97;;;;;;;21.09;51.63;99152.31;5100465;28;20039;-79
2022/09/30 01:19:57;;;;;;;6.43;5.45;;;;;;;20.52;51.88;99072.34;5074927;28;20078;-79
2022/09/30 01:22:41;;;;;;;6.30;5.70;;;;;;;20.99;52.17;99155.72;5074741;28;20038;-79
2022/09/30 01:25:33;;;;;;;6.82;6.13;;;;;;;20.97;52.07;99149.78;5074068;28;20036;-79
2022/09/30 01:28:17;;;;;;;10.25;6.25;;;;;;;20.95;52.21;99141.19;5066977;28;20107;-79
2022/09/30 01:31:41;;;;;;;7.78;6.20;;;;;;;20.60;52.40;99098.72;5074048;28;20025;-79
2022/09/30 01:34:15;;;;;;;8.98;5.93;;;;;;;20.93;52.22;99154.88;5032102;28;20021;-79
2022/09/30 01:37:11;;;;;;;7.47;5.72;;;;;;;20.75;52.31;99120.31;5069317;28;20032;-79
2022/09/30 01:39:55;;;;;;;9.40;6.60;;;;;;;20.99;52.10;99154.91;5084734;28;20042;-79
2022/09/30 01:42:36;;;;;;;7.13;6.03;;;;;;;20.54;52.27;99097.06;5098791;28;20009;-80
2022/09/30 01:45:12;;;;;;;7.70;6.17;;;;;;;20.94;52.38;99156.47;5074396;28;20028;-79
2022/09/30 01:48:02;;;;;;;8.55;6.55;;;;;;;20.86;52.30;99156.13;5073329;28;20024;-79
2022/09/30 01:50:53;;;;;;;8.20;5.93;;;;;;;20.70;52.10;99122.16;5073847;28;20074;-79
2022/09/30 01:53:49;;;;;;;6.70;6.10;;;;;;;20.60;52.44;99112.13;5073504;28;20016;-79
2022/09/30 01:56:34;;;;;;;7.55;5.78;;;;;;;20.58;52.24;99122.31;5073665;28;20058;-79
2022/09/30 01:59:09;;;;;;;6.28;5.68;;;;;;;20.60;52.40;99128.22;5072155;28;20020;-79
2022/09/30 02:02:03;;;;;;;8.25;6.20;;;;;;;20.79;52.56;99160.88;5071775;28;20044;-79
2022/09/30 02:04:35;;;;;;;7.47;6.32;;;;;;;20.74;52.53;99169.69;5049580;28;20039;-79
2022/09/30 02:07:06;;;;;;;8.45;6.00;;;;;;;20.58;52.68;99144.56;5073576;28;20052;-79
2022/09/30 02:09:45;;;;;;;7.30;6.47;;;;;;;20.28;52.51;99099.44;5073399;28;20024;-79
2022/09/30 02:12:17;;;;;;;7.22;6.40;;;;;;;20.49;52.17;99123.81;5073475;28;20092;-79
2022/09/30 02:14:48;;;;;;;7.78;5.93;;;;;;;20.74;52.33;99158.94;5071829;28;20020;-79
2022/09/30 02:17:22;;;;;;;10.17;6.17;;;;;;;20.52;52.33;99124.13;5072855;28;20036;-79
2022/09/30 02:19:58;;;;;;;9.13;6.47;;;;;;;20.09;52.44;99047.25;5072480;28;20097;-79
2022/09/30 02:22:29;;;;;;;8.95;6.47;;;;;;;20.78;52.45;99194.13;5071766;28;20035;-79
2022/09/30 02:24:58;;;;;;;;;;;;;;;20.58;52.95;99187.50;5073314;28;20051;-79
2022/09/30 02:27:30;;;;;;;9.38;6.35;;;;;;;20.41;52.70;99161.81;5072735;28;20411;-79
2022/09/30 02:29:58;;;;;;;9.25;6.10;;;;;;;20.74;52.50;99193.00;5072894;28;20081;-79
2022/09/30 02:32:32;;;;;;;6.97;6.30;;;;;;;20.76;52.39;99201.63;5071547;28;20413;-79
2022/09/30 02:35:18;;;;;;;8.75;6.68;;;;;;;20.77;52.47;99212.09;5072645;28;20017;-80
2022/09/30 02:37:49;;;;;;;9.18;6.03;;;;;;;20.18;52.51;99117.28;5065615;28;20113;-79
2022/09/30 02:40:26;;;;;;;7.05;6.35;;;;;;;20.72;52.63;99209.38;5072602;28;20036;-79
2022/09/30 02:42:51;;;;;;;8.30;6.55;;;;;;;20.72;52.51;99204.00;5072479;28;20493;-79
2022/09/30 02:45:20;;;;;;;7.20;5.65;;;;;;;20.29;52.23;99146.66;5072272;28;20074;-79
2022/09/30 02:47:46;;;;;;;7.28;6.03;;;;;;;20.62;52.84;99209.25;5072252;28;20497;-79
2022/09/30 02:50:34;;;;;;;6.57;5.97;;;;;;;20.37;53.09;99187.47;5072273;28;20081;-79
2022/09/30 02:53:40;;;;;;;6.53;5.85;;;;;;;20.16;53.08;99154.25;5070819;28;20066;-79
2022/09/30 02:56:11;;;;;;;8.20;5.95;;;;;;;20.55;52.95;99205.97;5063549;28;20626;-79
2022/09/30 02:58:38;;;;;;;7.03;6.22;;;;;;;20.43;52.87;99184.63;5071942;28;20031;-79
2022/09/30 03:01:10;;;;;;;7.03;6.30;;;;;;;20.07;53.05;99140.50;5072034;28;20472;-79
2022/09/30 03:04:10;;;;;;;6.95;6.22;;;;;;;20.48;53.08;99211.53;5070816;28;20086;-79
2022/09/30 03:06:36;;;;;;;7.32;6.22;;;;;;;19.71;53.15;99088.28;5049907;28;20429;-79
2022/09/30 03:09:02;;;;;;;7.75;5.82;;;;;;;20.46;53.25;99215.50;5070750;28;20053;-79
2022/09/30 03:11:29;;;;;;;7.20;6.25;;;;;;;19.78;52.89;99114.91;5072075;28;20524;-80
2022/09/30 03:14:21;;;;;;;8.65;6.32;;;;;;;20.43;53.16;99211.47;5072214;28;20058;-79
2022/09/30 03:17:16;;;;;;;7.85;6.85;;;;;;;20.41;53.18;99208.22;5070393;28;20035;-79
2022/09/30 03:20:03;;;;;;;7.47;6.72;;;;;;;20.40;53.05;99220.00;5071630;28;20060;-79
2022/09/30 03:22:59;;;;;;;7.55;6.40;;;;;;;19.75;53.10;99123.44;5070328;28;20031;-79
2022/09/30 03:25:46;;;;;;;8.02;6.88;;;;;;;20.30;52.84;99219.84;5064791;28;20050;-79
2022/09/30 03:28:17;;;;;;;9.05;7.30;;;;;;;20.19;52.77;99220.78;5071781;28;20638;-79
2022/09/30 03:30:58;;;;;;;9.88;6.57;;;;;;;19.42;52.73;99094.84;5070326;28;20039;-79
2022/09/30 03:33:55;;;;;;;7.75;6.95;;;;;;;19.53;52.79;99137.59;5071697;28;20029;-79
2022/09/30 03:36:33;;;;;;;7.05;6.35;;;;;;;19.99;53.08;99221.28;5071825;28;20031;-79
2022/09/30 03:39:14;;;;;;;9.55;6.68;;;;;;;20.03;52.98;99226.97;5071689;28;20086;-79
2022/09/30 03:42:09;;;;;;;7.88;6.97;;;;;;;19.92;52.91;99205.38;5071309;28;20035;-79
2022/09/30 03:44:44;;;;;;;8.07;7.13;;;;;;;19.87;52.97;99205.31;5071432;28;20036;-79
2022/09/30 03:47:12;;;;;;;9.27;7.47;;;;;;;19.62;52.97;99157.56;5071344;28;20416;-79
2022/09/30 03:49:44;;;;;;;8.15;6.53;;;;;;;19.98;52.95;99220.47;5071497;28;20025;-79
2022/09/30 03:52:12;;;;;;;7.68;6.88;;;;;;;19.47;52.71;99140.41;5071350;28;20109;-79
2022/09/30 03:54:57;;;;;;;7.72;6.15;;;;;;;19.94;52.56;99219.34;5070820;28;20028;-79
2022/09/30 03:57:27;;;;;;;7.82;6.90;;;;;;;19.74;52.71;99192.28;5071414;28;20027;-79
2022/09/30 03:59:52;;;;;;;8.38;7.00;;;;;;;19.31;52.86;99124.09;5071413;28;20131;-79
2022/09/30 04:02:18;;;;;;;12.73;7.40;;;;;;;19.21;52.81;99115.09;5070986;28;20107;-79
2022/09/30 04:04:43;;;;;;;7.88;7.05;;;;;;;20.02;52.77;99230.69;5071263;28;20029;-79
2022/09/30 04:07:09;;;;;;;9.93;7.40;;;;;;;19.42;52.73;99132.31;5071149;28;20032;-79
2022/09/30 04:09:36;;;;;;;10.88;7.70;;;;;;;20.00;52.67;99231.75;5069938;28;20082;-79
2022/09/30 04:12:02;;;;;;;9.27;7.97;;;;;;;19.91;52.41;99238.59;5070089;28;20063;-79
2022/09/30 04:14:27;;;;;;;7.68;6.93;;;;;;;19.17;52.62;99162.16;5071271;28;20024;-79
2022/09/30 04:16:53;;;;;;;7.38;6.65;;;;;;;19.60;52.83;99248.03;5069761;28;20086;-79
2022/09/30 04:19:18;;;;;;;8.45;6.82;;;;;;;19.00;52.61;99159.47;5071163;28;20028;-79
2022/09/30 04:21:44;;;;;;;7.72;6.68;;;;;;;19.44;52.77;99250.69;5071228;28;20027;-79
2022/09/30 04:24:09;;;;;;;7.30;6.30;;;;;;;18.72;53.04;99155.78;5071111;28;20031;-79
2022/09/30 04:26:34;;;;;;;9.65;6.55;;;;;;;19.04;53.13;99214.13;5069705;28;20375;-79
2022/09/30 04:29:00;;;;;;;10.52;6.90;;;;;;;18.54;53.32;99165.81;5070899;28;20032;-79
2022/09/30 04:31:25;;;;;;;9.77;7.40;;;;;;;19.19;53.46;99259.06;5071050;28;20059;-79
2022/09/30 04:33:51;;;;;;;8.63;6.70;;;;;;;18.51;53.57;99168.97;5069790;28;20025;-79
2022/09/30 04:36:16;;;;;;;9.10;6.97;;;;;;;18.53;53.57;99153.50;5069915;28;20032;-79
2022/09/30 04:38:42;;;;;;;8.13;7.32;;;;;;;18.87;53.52;99194.56;5071754;28;20050;-79
2022/09/30 04:41:14;;;;;;;8.40;7.63;;;;;;;19.11;53.19;99249.56;5072658;28;20417;-78
2022/09/30 04:43:43;;;;;;;9.82;7.75;;;;;;;19.19;53.38;99256.38;5071678;28;20028;-79
2022/09/30 04:46:09;;;;;;;8.88;7.15;;;;;;;18.30;53.32;99103.59;5070980;28;20107;-79
2022/09/30 04:48:34;;;;;;;9.23;7.18;;;;;;;19.02;53.29;99224.25;5070047;28;20593;-79
2022/09/30 04:51:00;;;;;;;9.00;7.40;;;;;;;18.95;53.28;99192.28;5070731;28;20489;-79
2022/09/30 04:53:25;;;;;;;11.73;7.95;;;;;;;19.01;53.19;99191.34;5069850;28;20017;-79
2022/09/30 04:55:58;;;;;;;10.80;6.90;;;;;;;19.39;53.25;99264.00;5071154;28;20513;-79
2022/09/30 04:58:23;;;;;;;9.63;7.10;;;;;;;18.95;53.25;99226.25;5070970;28;20028;-79
2022/09/30 05:00:49;;;;;;;11.38;8.88;;;;;;;18.72;53.27;99187.06;5070737;28;20051;-79
2022/09/30 05:03:14;;;;;;;13.73;8.45;;;;;;;19.23;53.35;99246.81;5070995;28;20025;-79
2022/09/30 05:05:42;;;;;;;10.82;8.18;;;;;;;19.41;53.49;99281.44;5094675;28;20020;-79
2022/09/30 05:08:08;;;;;;;10.35;8.05;;;;;;;19.17;53.17;99251.28;5085037;28;20025;-79
2022/09/30 05:10:34;;;;;;;11.65;8.60;;;;;;;18.72;53.23;99185.19;5088022;28;20028;-79
2022/09/30 05:12:59;;;;;;;11.57;8.57;;;;;;;19.37;53.18;99285.66;5091739;28;20412;-78
2022/09/30 05:15:25;;;;;;;13.23;8.40;;;;;;;18.96;53.21;99209.97;5095192;28;20121;-79
2022/09/30 05:17:51;;;;;;;16.45;8.63;;;;;;;19.28;53.04;99269.13;5078153;28;20028;-79
2022/09/30 05:20:18;;;;;;;15.68;8.68;;;;;;;19.52;53.00;99283.25;5083049;28;20028;-79
2022/09/30 05:22:43;;;;;;;13.75;8.15;;;;;;;19.30;52.93;99255.50;5080240;28;20055;-79
2022/09/30 05:25:09;;;;;;;10.43;8.38;;;;;;;19.15;52.98;99250.72;5074663;28;20474;-79
2022/09/30 05:27:34;;;;;;;13.32;8.55;;;;;;;19.51;52.86;99286.16;5074294;28;20031;-79
2022/09/30 05:30:00;;;;;;;10.20;9.23;;;;;;;19.17;52.83;99237.91;5074302;28;20082;-79
2022/09/30 05:32:25;;;;;;;12.98;8.80;;;;;;;18.80;52.86;99175.97;5074287;28;20024;-79
2022/09/30 05:34:51;;;;;;;8.15;7.20;;;;;;;19.39;52.59;99270.16;5074101;28;20496;-79
2022/09/30 05:37:16;;;;;;;12.30;7.68;;;;;;;19.72;52.65;99314.13;5073838;28;20112;-79
2022/09/30 05:39:42;;;;;;;11.57;7.10;;;;;;;19.34;52.62;99280.78;5073610;28;20052;-79
2022/09/30 05:42:07;;;;;;;10.73;6.50;;;;;;;19.55;52.66;99285.44;5072884;28;20048;-79
2022/09/30 05:44:33;;;;;;;12.18;8.25;;;;;;;19.17;52.53;99221.03;5072456;28;20075;-79
2022/09/30 05:46:58;;;;;;;12.30;7.25;;;;;;;19.58;52.41;99273.44;5073752;28;20025;-79
2022/09/30 05:49:25;;;;;;;10.85;7.20;;;;;;;19.09;52.37;99227.59;5075442;28;20017;-79
2022/09/30 05:51:51;;;;;;;11.60;6.93;;;;;;;19.59;52.44;99277.75;5085560;28;20027;-79
2022/09/30 05:54:16;;;;;;;10.52;6.32;;;;;;;19.78;52.55;99308.59;5087573;28;20029;-79
2022/09/30 05:56:41;;;;;;;11.35;7.32;;;;;;;19.48;52.40;99251.81;5077175;28;20032;-79
2022/09/30 05:59:07;;;;;;;8.48;7.20;;;;;;;19.47;52.33;99242.16;5093740;28;20447;-78
2022/09/30 06:01:32;;;;;;;10.80;7.70;;;;;;;20.10;52.13;99338.34;5081127;28;20041;-79
2022/09/30 06:03:59;;;;;;;9.50;6.53;;;;;;;20.00;52.01;99314.03;5089244;28;20050;-79
2022/09/30 06:06:25;;;;;;;6.82;6.20;;;;;;;19.53;52.05;99225.16;5077566;28;20509;-79
2022/09/30 06:08:50;;;;;;;8.88;6.95;;;;;;;20.24;51.88;99333.44;5088970;28;20034;-79
2022/09/30 06:11:18;;;;;;;6.63;5.88;;;;;;;20.38;51.94;99325.84;5090467;28;20036;-79
2022/09/30 06:13:46;;;;;;;9.38;5.95;;;;;;;20.40;51.68;99338.00;5080171;28;20082;-79
2022/09/30 06:16:12;;;;;;;10.10;6.30;;;;;;;20.46;51.65;99331.63;5074402;28;20028;-79
2022/09/30 06:18:40;;;;;;;6.57;5.55;;;;;;;20.16;51.72;99281.06;5073435;28;20028;-79
2022/09/30 06:21:07;;;;;;;7.95;5.65;;;;;;;20.59;51.50;99342.00;5091434;28;20020;-79
2022/09/30 06:23:36;;;;;;;12.95;7.93;;;;;;;20.66;51.19;99349.88;5087025;28;20036;-79
2022/09/30 06:26:04;;;;;;;7.68;6.57;;;;;;;20.58;51.30;99321.59;5072963;28;20024;-79
2022/09/30 06:28:33;;;;;;;11.95;7.45;;;;;;;20.86;51.17;99346.66;5073462;28;20025;-79
2022/09/30 06:30:58;;;;;;;9.15;6.97;;;;;;;20.75;51.44;99332.28;5093456;28;20020;-79
2022/09/30 06:33:23;;;;;;;10.50;7.20;;;;;;;20.48;51.50;99291.16;5074539;28;20026;-79
2022/09/30 06:35:49;;;;;;;10.23;6.07;;;;;;;20.58;51.45;99313.56;5087179;28;20023;-79
2022/09/30 06:38:15;;;;;;;12.20;9.75;;;;;;;21.07;51.26;99382.63;5086676;28;20089;-79
2022/09/30 06:40:48;;;;;;;13.07;9.88;;;;;;;21.08;51.40;99370.81;5089988;28;20028;-80
2022/09/30 06:43:14;;;;;;;9.45;7.35;;;;;;;20.82;51.11;99298.06;5072637;28;20035;-79
2022/09/30 06:45:40;;;;;;;10.85;7.70;;;;;;;20.63;50.73;99262.66;5087342;28;20089;-79
2022/09/30 06:48:07;;;;;;;10.95;7.25;;;;;;;21.40;51.15;99382.50;5083827;28;20078;-79
2022/09/30 06:50:33;;;;;;;9.57;6.28;;;;;;;21.48;50.47;99382.03;5079279;28;20020;-79
2022/09/30 06:53:00;;;;;;;7.57;6.07;;;;;;;21.55;50.82;99385.38;5092029;28;20035;-79
2022/09/30 06:55:27;;;;;;;13.10;9.90;;;;;;;21.62;50.87;99381.66;5084653;28;20598;-79
2022/09/30 06:57:54;;;;;;;12.82;8.38;;;;;;;21.48;50.86;99354.38;5071207;28;20025;-79
2022/09/30 07:00:20;;;;;;;14.30;8.77;;;;;;;21.08;50.98;99307.19;5072044;28;20516;-78
2022/09/30 07:02:47;;;;;;;9.45;7.53;;;;;;;21.09;50.64;99297.28;5071797;28;20173;-79
2022/09/30 07:05:14;;;;;;;11.23;7.70;;;;;;;21.51;50.77;99353.84;5070600;28;20085;-79
2022/09/30 07:07:41;;;;;;;12.00;7.47;;;;;;;21.51;50.65;99341.22;5070522;28;20024;-78
2022/09/30 07:10:07;;;;;;;9.77;7.72;;;;;;;21.95;50.27;99413.69;5071657;28;20020;-79
2022/09/30 07:12:33;;;;;;;10.52;7.15;;;;;;;20.93;50.21;99229.19;5070298;28;20091;-78
2022/09/30 07:14:59;;;;;;;6.07;5.25;;;;;;;21.96;50.13;99388.41;5071849;28;20028;-78
2022/09/30 07:17:25;;;;;;;7.55;5.13;;;;;;;22.18;50.08;99402.63;5071215;28;20070;-79
2022/09/30 07:19:51;;;;;;;7.35;6.63;;;;;;;21.65;49.93;99311.28;5071490;28;20501;-79
2022/09/30 07:22:26;;;;;;;8.75;7.38;;;;;;;21.72;50.09;99306.50;5070920;28;20083;-78
2022/09/30 07:24:51;;;;;;;9.43;6.70;;;;;;;22.27;49.95;99372.56;5074648;28;20024;-77
2022/09/30 07:27:18;;;;;;;6.68;4.78;;;;;;;22.00;49.68;99329.56;5073101;28;20032;-79
2022/09/30 07:29:44;;;;;;;6.30;4.28;;;;;;;22.04;49.43;99347.66;5070374;28;20103;-79
2022/09/30 07:32:10;;;;;;;4.32;3.85;;;;;;;21.77;49.18;99291.25;5070858;28;20394;-80
2022/09/30 07:34:36;;;;;;;4.28;3.75;;;;;;;22.60;49.27;99436.03;5090506;28;20552;-79
2022/09/30 07:37:02;;;;;;;4.18;3.78;;;;;;;22.25;49.03;99353.19;5090436;28;20059;-79
2022/09/30 07:39:27;;;;;;;6.00;3.85;;;;;;;22.19;48.74;99331.63;5092502;28;20459;-79
2022/09/30 07:41:53;;;;;;;5.35;3.80;;;;;;;22.72;48.45;99410.53;5092167;28;20085;-79
2022/09/30 07:44:19;;;;;;;10.27;9.32;;;;;;;22.85;48.37;99419.25;5076442;28;20032;-79
2022/09/30 07:46:44;;;;;;;5.32;4.10;;;;;;;22.91;48.09;99420.91;5070399;28;20028;-79
2022/09/30 07:49:13;;;;;;;5.13;4.63;;;;;;;22.94;47.92;99429.25;5070374;28;20035;-79
2022/09/30 07:51:43;;;;;;;4.70;4.20;;;;;;;23.02;47.86;99430.66;5071803;28;20103;-79
2022/09/30 07:54:15;;;;;;;5.95;4.45;;;;;;;22.39;47.60;99355.19;5084644;28;20045;-79
2022/09/30 07:56:43;;;;;;;5.60;4.35;;;;;;;23.16;47.40;99434.50;5092232;28;20027;-79
2022/09/30 07:59:10;;;;;;;5.68;3.55;;;;;;;23.20;47.50;99443.69;5092333;28;20028;-79
2022/09/30 08:01:35;;;;;;;7.75;3.63;;;;;;;23.29;47.08;99452.88;5086251;28;20041;-78
2022/09/30 08:04:05;;;;;;;4.55;4.07;;;;;;;23.19;46.78;99425.09;5091512;28;20063;-80
2022/09/30 08:06:35;;;;;;;5.43;3.33;;;;;;;23.36;46.68;99439.97;5096357;28;20072;-79
2022/09/30 08:09:00;;;;;;;8.88;8.02;;;;;;;23.45;46.41;99438.38;5071211;28;20501;-78
2022/09/30 08:11:26;;;;;;;6.82;4.60;;;;;;;22.93;46.28;99340.66;5076378;28;20115;-79
2022/09/30 08:13:55;;;;;;;5.00;4.00;;;;;;;23.62;46.10;99437.38;5092371;28;20026;-79
2022/09/30 08:16:22;;;;;;;6.13;3.67;;;;;;;23.27;45.74;99376.91;5091382;28;20020;-78
2022/09/30 08:18:48;;;;;;;6.90;6.18;;;;;;;23.54;45.67;99411.72;5091747;28;20081;-78
2022/09/30 08:21:14;;;;;;;7.80;5.20;;;;;;;23.88;45.46;99449.88;5089261;28;20024;-77
2022/09/30 08:23:39;;;;;;;9.35;5.25;;;;;;;23.66;45.51;99412.31;5070188;28;20028;-76
2022/09/30 08:26:06;;;;;;;4.30;3.88;;;;;;;24.00;45.46;99449.63;5069957;28;20028;-78
2022/09/30 08:28:32;;;;;;;5.40;3.97;;;;;;;23.69;45.11;99378.63;5071226;28;20020;-78
2022/09/30 08:31:06;;;;;;;6.70;3.60;;;;;;;23.87;44.99;99393.50;5104198;28;20039;-79
2022/09/30 08:33:32;;;;;;;8.45;6.80;;;;;;;23.66;44.76;99350.31;5088044;28;20031;-78
2022/09/30 08:36:05;;;;;;;7.10;4.82;;;;;;;24.44;44.67;99460.72;5069639;28;20556;-79
2022/09/30 08:38:32;;;;;;;21.67;19.20;;;;;;;24.56;44.20;99457.75;5077447;28;20024;-79
2022/09/30 08:41:06;;;;;;;12.02;10.88;;;;;;;24.67;44.00;99454.78;5070484;28;20029;-79
2022/09/30 08:43:49;;;;;;;7.93;5.75;;;;;;;24.71;44.10;99453.16;5069601;28;20025;-79
2022/09/30 08:46:29;;;;;;;15.52;13.95;;;;;;;24.88;43.73;99439.34;5086040;28;20063;-79
2022/09/30 08:49:08;;;;;;;9.68;7.05;;;;;;;24.36;43.17;99356.81;5073783;28;20459;-78
2022/09/30 08:51:43;;;;;;;5.28;4.55;;;;;;;24.78;43.36;99400.75;5074438;28;20035;-79
2022/09/30 08:54:14;;;;;;;5.10;4.03;;;;;;;25.01;43.02;99441.50;5074744;28;20032;-78
2022/09/30 08:56:43;;;;;;;4.37;3.97;;;;;;;24.99;43.10;99424.75;5074690;28;20028;-79
2022/09/30 08:59:26;;;;;;;6.63;3.50;;;;;;;25.13;42.61;99457.41;5074440;28;20020;-78
2022/09/30 09:02:10;;;;;;;6.43;3.67;;;;;;;25.26;42.28;99442.47;5074459;28;20045;-79
2022/09/30 09:04:36;;;;;;;4.40;4.00;;;;;;;25.29;42.39;99423.84;5073851;28;20294;-78
2022/09/30 09:07:01;;;;;;;6.32;3.92;;;;;;;25.64;41.93;99468.81;5073322;28;20028;-79
2022/09/30 09:09:56;;;;;;;10.55;9.55;;;;;;;25.50;41.49;99423.75;5074691;28;20028;-79
2022/09/30 09:12:35;;;;;;;4.22;3.45;;;;;;;25.94;41.58;99472.47;5089743;28;20019;-79
2022/09/30 09:15:33;;;;;;;5.55;4.43;;;;;;;26.06;40.99;99459.41;5086434;28;20029;-79
2022/09/30 09:18:17;;;;;;;5.13;4.50;;;;;;;26.28;40.81;99461.69;5079707;28;20032;-79
2022/09/30 09:20:55;;;;;;;4.68;3.40;;;;;;;26.40;39.89;99461.34;5085235;28;20029;-79
2022/09/30 09:23:21;;;;;;;4.40;3.67;;;;;;;26.05;40.34;99398.28;5076336;28;20032;-79
2022/09/30 09:25:51;;;;;;;3.08;2.88;;;;;;;26.63;39.94;99471.41;5089697;28;20080;-79
2022/09/30 09:28:44;;;;;;;4.10;3.20;;;;;;;26.59;39.76;99430.56;5092680;28;20028;-78
2022/09/30 09:31:16;;;;;;;4.88;3.42;;;;;;;27.00;39.16;99453.75;5090714;28;20024;-78
2022/09/30 09:33:42;;;;;;;6.32;3.42;;;;;;;27.00;39.27;99435.59;5091841;28;20404;-78
2022/09/30 09:36:17;;;;;;;7.50;5.63;;;;;;;26.73;38.48;99386.53;5074587;28;20130;-79
2022/09/30 09:38:46;;;;;;;6.00;3.60;;;;;;;27.34;38.46;99459.84;5071788;28;20088;-78
2022/09/30 09:41:24;;;;;;;4.47;3.40;;;;;;;27.28;38.31;99439.34;5077002;28;20071;-78
2022/09/30 09:44:21;;;;;;;5.78;3.08;;;;;;;27.58;37.97;99461.75;5094220;28;20035;-79
2022/09/30 09:46:54;;;;;;;5.07;3.40;;;;;;;27.47;37.30;99418.47;5094523;28;20020;-78
2022/09/30 09:49:19;;;;;;;4.90;3.20;;;;;;;27.87;37.52;99467.06;5090787;28;20036;-78
2022/09/30 09:52:11;;;;;;;4.13;3.33;;;;;;;27.43;36.46;99359.69;5082380;28;20142;-79
2022/09/30 09:54:41;;;;;;;11.75;4.03;;;;;;;28.16;36.89;99452.22;5072038;28;20075;-79
2022/09/30 09:57:09;;;;;;;4.80;3.95;;;;;;;27.98;36.37;99406.09;5074059;28;20025;-79
2022/09/30 09:59:36;;;;;;;4.90;4.30;;;;;;;28.54;35.79;99456.81;5074711;28;20421;-78
2022/09/30 10:02:02;;;;;;;3.72;2.92;;;;;;;28.14;35.44;99380.31;5071459;28;20124;-78
2022/09/30 10:04:31;;;;;;;5.35;3.97;;;;;;;28.76;35.36;99449.59;5090224;28;20544;-78
2022/09/30 10:07:00;;;;;;;7.03;3.22;;;;;;;28.86;35.01;99450.56;5090517;28;20521;-77
2022/09/30 10:09:33;;;;;;;5.40;4.35;;;;;;;28.96;34.98;99456.59;5071349;28;20032;-78
2022/09/30 10:12:05;;;;;;;7.10;3.78;;;;;;;29.11;34.52;99455.53;5077491;28;20517;-78
2022/09/30 10:14:32;;;;;;;3.50;3.20;;;;;;;29.30;33.81;99450.78;5093502;28;20532;-77
2022/09/30 10:17:04;;;;;;;4.47;3.30;;;;;;;29.49;33.88;99449.88;5091166;28;20012;-77
2022/09/30 10:19:33;;;;;;;3.95;3.55;;;;;;;29.73;33.26;99447.72;5071917;28;20115;-78
2022/09/30 10:22:07;;;;;;;4.03;2.50;;;;;;;29.86;30.79;99441.44;5085076;28;20070;-78
2022/09/30 10:24:34;;;;;;;3.50;3.15;;;;;;;30.01;31.66;99443.84;5092144;28;20020;-78
2022/09/30 10:26:59;;;;;;;4.47;3.38;;;;;;;30.12;31.58;99449.84;5091879;28;20035;-78
2022/09/30 10:29:34;;;;;;;5.78;4.03;;;;;;;30.00;31.48;99436.75;5083612;28;20020;-78
2022/09/30 10:32:07;;;;;;;3.75;3.45;;;;;;;30.05;31.32;99411.34;5078488;28;20562;-77
2022/09/30 10:34:40;;;;;;;4.97;4.20;;;;;;;30.17;30.83;99408.06;5093519;28;20420;-78
2022/09/30 10:37:23;;;;;;;4.28;3.90;;;;;;;30.25;30.40;99385.50;5085528;28;20036;-78
2022/09/30 10:40:00;;;;;;;5.60;3.55;;;;;;;30.34;30.70;99372.75;5075609;28;20055;-76
2022/09/30 10:42:28;;;;;;;5.15;3.50;;;;;;;30.56;30.02;99380.09;5078082;28;20032;-79
2022/09/30 10:45:18;;;;;;;4.30;2.90;;;;;;;31.02;29.65;99436.91;5087346;28;20032;-78
2022/09/30 10:47:48;;;;;;;3.90;3.50;;;;;;;31.14;29.23;99430.84;5091674;28;20028;-78
2022/09/30 10:50:19;;;;;;;4.30;3.90;;;;;;;30.93;29.05;99387.00;5092011;28;20412;-78
2022/09/30 10:52:58;;;;;;;4.90;4.40;;;;;;;31.32;28.69;99427.09;5092487;28;20024;-78
2022/09/30 10:55:23;;;;;;;5.65;4.55;;;;;;;31.43;28.54;99430.31;5092938;28;20055;-78
2022/09/30 10:57:51;;;;;;;3.00;2.70;;;;;;;31.48;28.51;99427.44;5093067;28;20504;-78
2022/09/30 11:00:20;;;;;;;7.25;6.00;;;;;;;31.49;28.44;99420.84;5092684;28;20520;-77
2022/09/30 11:03:10;;;;;;;5.43;3.80;;;;;;;31.63;27.82;99426.16;5092753;28;20047;-77
2022/09/30 11:05:42;;;;;;;4.78;4.32;;;;;;;31.52;28.20;99404.66;5092574;28;20019;-78
2022/09/30 11:08:34;;;;;;;7.07;5.07;;;;;;;31.79;27.44;99421.88;5090962;28;20173;-78
2022/09/30 11:11:13;;;;;;;5.57;3.30;;;;;;;31.27;27.64;99335.28;5091781;28;20067;-77
2022/09/30 11:13:49;;;;;;;5.32;2.95;;;;;;;31.76;26.67;99427.97;5092525;28;20024;-79
2022/09/30 11:16:32;;;;;;;6.45;5.85;;;;;;;31.85;26.23;99436.97;5092716;28;20085;-77
2022/09/30 11:19:06;;;;;;;4.60;4.20;;;;;;;31.83;26.93;99415.44;5092678;28;20515;-78
2022/09/30 11:21:42;;;;;;;3.10;2.33;;;;;;;31.87;26.55;99421.84;5092714;28;20042;-77
2022/09/30 11:24:13;;;;;;;9.80;8.90;;;;;;;31.91;26.87;99417.34;5092811;28;20453;-78
2022/09/30 11:26:38;;;;;;;;;;;;;;;31.91;27.37;99420.09;5092919;28;20032;-77
2022/09/30 11:29:25;;;;;;;4.22;2.80;;;;;;;31.90;27.13;99418.47;5090863;28;19914;-77
2022/09/30 11:32:00;;;;;;;3.95;3.00;;;;;;;31.93;26.99;99417.03;5102161;28;20015;-79
2022/09/30 11:34:51;;;;;;;5.05;4.50;;;;;;;31.81;26.68;99414.97;5117266;28;20043;-78
2022/09/30 11:37:16;;;;;;;4.03;3.63;;;;;;;31.78;27.31;99425.72;5099328;28;20024;-78
2022/09/30 11:39:58;;;;;;;3.95;3.53;;;;;;;31.74;27.09;99425.56;5092702;28;20164;-79
2022/09/30 11:42:35;;;;;;;5.28;3.10;;;;;;;31.64;27.06;99425.84;5092708;28;20081;-78
2022/09/30 11:45:38;;;;;;;3.92;2.67;;;;;;;31.51;27.15;99418.59;5092293;28;20039;-78
2022/09/30 11:48:06;;;;;;;3.70;2.97;;;;;;;31.37;27.65;99424.22;5090854;28;20024;-78
2022/09/30 11:50:38;;;;;;;3.20;2.63;;;;;;;31.25;27.81;99422.09;5092024;28;20030;-77
2022/09/30 11:53:12;;;;;;;7.25;3.70;;;;;;;31.14;28.15;99428.09;5090096;28;20082;-79
2022/09/30 11:56:25;;;;;;;6.43;2.80;;;;;;;30.88;28.33;99409.75;5087310;28;20032;-78